Aérodrome :
LOGIN :

S'inscrire | Disclaimer

   EN    FR    IT 

 










Légende :    VFR   VFR Marginal   IFR   IFR Intensif   IFR Très Intensif
Visi : 
Plafond : 
>= 8 km
>= 3000ft
5 à 8 km
1000 à 3000 ft
1500m à 5 km
500 à 1000 ft
800 à 1500m
200 à 500 ft
< 800m
< 200 ft
Symboles :   Orages  Brouillard  Fortes neiges  Fortes précipitations  Vent > 20 kt
SIGMETs :   Divers  Orages  Givrage  Turbulence  Onde Orograph.  Cendres Volcan.







- Altitude de l'aérodrome : 106 ft
- Code IATA : NRN


EDLV - Weeze

DERNIER METAR :
  • 290650Z 15003KT 9000 BKN010 17/16 Q0995

METARs EXPIRÉS :
  • 290620Z VRB03KT 8000 SCT015 SCT020 18/17 Q0995
  • 290550Z VRB03KT 6000 BKN018 17/17 Q0995
  • 290520Z 22004KT 190V250 5000 BR FEW013 SCT026 BKN120 17/16 Q0995
  • 290450Z 19004KT 170V250 5000 BR FEW005 BKN100 16/16 Q0995
  • 290420Z 18002KT 7000 NSC 16/15 Q0995

TAF TAF EDLV
Valide du 29 à 06h jusqu'au 30 à 06h UTC


290500Z 2906/3006 20005KT 9000 SCT045
PROB30
TEMPO 2908/2912 SHRA BKN030CB
Pas de NOTAMs connus pour ce terrain.



MET'MAP, la Météo Aéronautique d'un coup d'oeil ! - Copyright ORBIFLY Décembre 2007 - Disclaimer

ORBIFLY MET'MAP TEAM :

Programmation & Développement : Alexandra Zaïnal
Conception & Développement : Baudouin d'Aumeries
Co-Programmation & Développement : Marc-Olivier Méhu
Soutien technique & logistique : Manuel Goepfert

Contact : metmap@orbifly.com




SOURCES & CREDITS :

   NOAA